createdAt,value
2023-05-14T00:05:40.262Z,98098.09
2023-05-14T00:11:01.053Z,98101.50
2023-05-14T00:16:21.759Z,98094.91
2023-05-14T00:21:42.683Z,98081.09
2023-05-14T00:27:04.073Z,98080.38
2023-05-14T00:32:24.902Z,98080.09
2023-05-14T00:37:46.496Z,98079.38
2023-05-14T00:43:07.886Z,98088.16
2023-05-14T00:48:28.575Z,98081.06
2023-05-14T00:53:49.182Z,98083.69
2023-05-14T00:59:09.742Z,98083.69
2023-05-14T01:04:30.655Z,98080.16
2023-05-14T01:10:07.881Z,98074.81
2023-05-14T01:15:30.901Z,98067.34
2023-05-14T01:20:52.707Z,98068.50
2023-05-14T01:26:13.057Z,98065.56
2023-05-14T01:31:33.636Z,98064.69
2023-05-14T01:36:54.141Z,98060.28
2023-05-14T01:42:14.747Z,98058.41
2023-05-14T01:47:35.608Z,98055.03
2023-05-14T01:52:56.877Z,98050.50
2023-05-14T01:58:17.831Z,98046.22
2023-05-14T02:03:38.458Z,98034.78
2023-05-14T02:08:59.182Z,98028.47
2023-05-14T02:14:19.801Z,98025.66
2023-05-14T02:19:40.534Z,98029.31
2023-05-14T02:25:01.331Z,98031.22
2023-05-14T02:30:22.205Z,98040.78
2023-05-14T02:35:42.955Z,98035.78
2023-05-14T02:41:03.589Z,98035.94
2023-05-14T02:46:24.238Z,98031.06
2023-05-14T02:51:44.716Z,98034.59
2023-05-14T02:57:05.520Z,98019.59
2023-05-14T03:02:26.141Z,98025.94
2023-05-14T03:07:47.119Z,98022.41
2023-05-14T03:13:07.746Z,98021.97
2023-05-14T03:18:30.631Z,98022.53
2023-05-14T03:23:52.582Z,98021.34
2023-05-14T03:29:13.094Z,98021.50
2023-05-14T03:34:34.418Z,98019.28
2023-05-14T03:39:54.934Z,98012.84
2023-05-14T03:45:15.485Z,98014.91
2023-05-14T03:50:36.114Z,98016.13
2023-05-14T03:55:56.806Z,98013.63
2023-05-14T04:01:17.345Z,98008.56
2023-05-14T04:06:38.005Z,98008.72
2023-05-14T04:11:58.490Z,98010.63
2023-05-14T04:17:19.339Z,98011.78
2023-05-14T04:22:39.639Z,98000.38
2023-05-14T04:28:00.497Z,97998.44
2023-05-14T04:33:21.166Z,98007.69
2023-05-14T04:38:41.824Z,98005.22
2023-05-14T04:44:03.036Z,97996.78
2023-05-14T04:49:23.575Z,97993.56
2023-05-14T04:54:44.317Z,97987.91
2023-05-14T05:00:09.665Z,97996.50
2023-05-14T05:05:30.149Z,97992.69
2023-05-14T05:10:50.685Z,97992.59
2023-05-14T05:16:11.371Z,97992.78
2023-05-14T05:21:31.971Z,97981.03
2023-05-14T05:26:53.961Z,97981.91
2023-05-14T05:32:14.296Z,97985.47
2023-05-14T05:37:34.902Z,97985.72
2023-05-14T05:42:55.820Z,97988.00
2023-05-14T05:48:16.569Z,97983.88
2023-05-14T05:53:36.830Z,97987.44
2023-05-14T05:58:57.554Z,97979.97
2023-05-14T06:04:17.984Z,97969.13
2023-05-14T06:09:38.638Z,97972.25
2023-05-14T06:14:59.389Z,97966.97
2023-05-14T06:20:20.130Z,97972.47
2023-05-14T06:25:41.038Z,97975.13
2023-05-14T06:31:01.659Z,97986.63
2023-05-14T06:36:22.226Z,97987.19
2023-05-14T06:41:42.852Z,97975.03
2023-05-14T06:47:11.273Z,97972.50
2023-05-14T06:52:31.642Z,97972.72
2023-05-14T06:57:52.296Z,97988.22
2023-05-14T07:03:13.002Z,97985.78
2023-05-14T07:08:33.687Z,97976.94
2023-05-14T07:13:54.266Z,97977.34
2023-05-14T07:19:15.218Z,97972.97
2023-05-14T07:24:36.236Z,97968.13
2023-05-14T07:29:56.973Z,97965.59
2023-05-14T07:35:17.761Z,97962.78
2023-05-14T07:40:38.462Z,97965.63
2023-05-14T07:45:59.668Z,97958.13
2023-05-14T07:51:20.200Z,97939.84
2023-05-14T07:56:41.272Z,97940.25
2023-05-14T08:02:02.232Z,97937.69
2023-05-14T08:07:22.758Z,97939.03
2023-05-14T08:12:43.560Z,97928.91
2023-05-14T08:18:04.284Z,97928.78
2023-05-14T08:23:24.984Z,97925.25
2023-05-14T08:28:45.574Z,97934.63
2023-05-14T08:34:06.248Z,97927.44
2023-05-14T08:39:26.779Z,97920.09
2023-05-14T08:44:53.717Z,97913.19
2023-05-14T08:50:14.728Z,97920.81
2023-05-14T08:55:35.281Z,97897.84
2023-05-14T09:00:56.208Z,97896.13
2023-05-14T09:06:17.532Z,97885.66
2023-05-14T09:11:48.246Z,97878.72
2023-05-14T09:17:09.019Z,97879.13
2023-05-14T09:22:31.898Z,97871.84
2023-05-14T09:27:55.377Z,97868.09
2023-05-14T09:33:26.805Z,97866.19
2023-05-14T09:38:47.223Z,97862.91
2023-05-14T09:44:07.790Z,97851.63
2023-05-14T09:49:29.584Z,97842.97
2023-05-14T09:54:53.468Z,97837.69
2023-05-14T10:00:16.102Z,97842.09
2023-05-14T10:05:37.198Z,97832.81
2023-05-14T10:10:59.021Z,97837.09
2023-05-14T10:16:22.040Z,97827.16
2023-05-14T10:21:44.777Z,97829.19
2023-05-14T10:27:05.822Z,97823.47
2023-05-14T10:32:27.197Z,97818.53
2023-05-14T10:37:47.829Z,97820.19
2023-05-14T10:43:09.367Z,97816.63
2023-05-14T10:48:30.397Z,97819.22
2023-05-14T10:53:51.385Z,97798.75
2023-05-14T10:59:12.039Z,97807.78
2023-05-14T11:04:32.610Z,97796.75
2023-05-14T11:09:53.612Z,97801.63
2023-05-14T11:15:16.030Z,97785.41
2023-05-14T11:20:36.558Z,97780.13
2023-05-14T11:25:57.518Z,97782.97
2023-05-14T11:31:19.024Z,97782.63
2023-05-14T11:36:39.590Z,97785.19
2023-05-14T11:42:02.860Z,97776.88
2023-05-14T11:47:23.764Z,97779.47
2023-05-14T11:52:44.448Z,97784.19
2023-05-14T11:58:04.949Z,97787.56
2023-05-14T12:03:26.728Z,97773.03
2023-05-14T12:08:47.740Z,97770.13
2023-05-14T12:14:13.410Z,97754.28
2023-05-14T12:19:34.371Z,97751.63
2023-05-14T12:24:59.051Z,97743.41
2023-05-14T12:30:21.639Z,97734.19
2023-05-14T12:35:43.379Z,97730.44
2023-05-14T12:41:04.063Z,97723.56
2023-05-14T12:46:25.493Z,97721.66
2023-05-14T12:51:47.112Z,97708.72
2023-05-14T12:57:07.814Z,97714.22
2023-05-14T13:02:28.727Z,97706.16
2023-05-14T13:07:49.280Z,97712.72
2023-05-14T13:13:11.559Z,97695.69
2023-05-14T13:18:32.420Z,97692.41
2023-05-14T13:23:53.705Z,97678.06
2023-05-14T13:29:16.006Z,97672.81
2023-05-14T13:34:36.762Z,97670.94
2023-05-14T13:39:57.507Z,97666.19
2023-05-14T13:45:18.648Z,97656.38
2023-05-14T13:50:39.558Z,97651.31
2023-05-14T13:56:01.769Z,97646.34
2023-05-14T14:01:23.781Z,97652.06
2023-05-14T14:06:44.721Z,97655.63
2023-05-14T14:12:05.878Z,97655.69
2023-05-14T14:17:26.634Z,97651.41
2023-05-14T14:22:47.339Z,97649.59
2023-05-14T14:28:08.185Z,97662.00
2023-05-14T14:33:28.913Z,97652.03
2023-05-14T14:38:49.459Z,97647.22
2023-05-14T14:44:10.028Z,97661.06
2023-05-14T14:49:32.194Z,97647.88
2023-05-14T14:54:54.057Z,97650.06
2023-05-14T15:00:15.614Z,97648.25
2023-05-14T15:05:36.192Z,97660.41
2023-05-14T15:10:56.999Z,97667.31
2023-05-14T15:16:17.563Z,97652.81
2023-05-14T15:21:38.050Z,97664.31
2023-05-14T15:26:58.664Z,97672.22
2023-05-14T15:32:19.279Z,97656.06
2023-05-14T15:37:41.288Z,97663.78
2023-05-14T15:43:02.132Z,97672.03
2023-05-14T15:48:22.910Z,97670.47
2023-05-14T15:53:43.537Z,97665.41
2023-05-14T15:59:04.113Z,97667.16
2023-05-14T16:04:25.126Z,97659.25
2023-05-14T16:09:45.910Z,97662.56
2023-05-14T16:15:07.799Z,97662.34
2023-05-14T16:20:28.619Z,97666.50
2023-05-14T16:25:49.194Z,97684.38
2023-05-14T16:31:09.918Z,97660.03
2023-05-14T16:36:31.244Z,97665.94
2023-05-14T16:41:52.125Z,97673.38
2023-05-14T16:47:13.084Z,97674.69
2023-05-14T16:52:34.244Z,97674.00
2023-05-14T16:57:55.365Z,97672.13
2023-05-14T17:03:15.929Z,97670.47
2023-05-14T17:08:37.067Z,97674.03
2023-05-14T17:13:57.691Z,97671.06
2023-05-14T17:19:18.435Z,97662.19
2023-05-14T17:24:39.208Z,97662.44
2023-05-14T17:30:01.180Z,97662.06
2023-05-14T17:35:21.925Z,97652.31
2023-05-14T17:40:42.933Z,97658.53
2023-05-14T17:46:04.289Z,97649.06
2023-05-14T17:51:25.223Z,97660.13
2023-05-14T17:56:48.040Z,97657.72
2023-05-14T18:02:08.913Z,97653.22
2023-05-14T18:07:29.900Z,97649.94
2023-05-14T18:12:50.744Z,97653.22
2023-05-14T18:18:11.412Z,97642.78
2023-05-14T18:23:32.080Z,97647.75
2023-05-14T18:28:52.784Z,97642.91
2023-05-14T18:34:13.405Z,97646.03
2023-05-14T18:39:34.027Z,97640.72
2023-05-14T18:44:54.725Z,97638.28
2023-05-14T18:50:15.404Z,97639.72
2023-05-14T18:55:37.030Z,97629.75
2023-05-14T19:00:59.009Z,97630.75
2023-05-14T19:06:19.884Z,97632.94
2023-05-14T19:11:40.431Z,97634.38
2023-05-14T19:17:01.581Z,97633.03
2023-05-14T19:22:22.070Z,97621.97
2023-05-14T19:27:43.178Z,97618.06
2023-05-14T19:33:04.347Z,97618.94
2023-05-14T19:38:24.957Z,97617.81
2023-05-14T19:43:45.719Z,97611.13
2023-05-14T19:49:06.425Z,97600.47
2023-05-14T19:54:27.120Z,97600.69
2023-05-14T19:59:47.875Z,97589.75
2023-05-14T20:05:12.146Z,97594.97
2023-05-14T20:10:32.807Z,97582.72
2023-05-14T20:15:55.082Z,97576.84
2023-05-14T20:21:16.171Z,97569.28
2023-05-14T20:26:36.754Z,97570.63
2023-05-14T20:31:57.451Z,97555.91
2023-05-14T20:37:24.037Z,97556.28
2023-05-14T20:42:44.910Z,97551.44
2023-05-14T20:48:09.928Z,97542.66
2023-05-14T20:53:31.129Z,97549.00
2023-05-14T20:58:51.682Z,97529.69
2023-05-14T21:04:12.495Z,97524.72
2023-05-14T21:09:33.490Z,97519.69
2023-05-14T21:14:54.219Z,97522.63
2023-05-14T21:20:15.638Z,97508.75
2023-05-14T21:25:36.355Z,97507.06
2023-05-14T21:30:56.930Z,97503.03
2023-05-14T21:36:17.516Z,97502.56
2023-05-14T21:41:38.119Z,97494.91
2023-05-14T21:46:59.135Z,97493.56
2023-05-14T21:52:19.421Z,97490.66
2023-05-14T21:57:40.702Z,97476.53
2023-05-14T22:03:01.242Z,97479.47
2023-05-14T22:08:21.887Z,97464.91
2023-05-14T22:13:42.426Z,97463.69
2023-05-14T22:19:04.465Z,97456.38
2023-05-14T22:24:26.172Z,97451.41
2023-05-14T22:29:46.639Z,97451.66
2023-05-14T22:35:07.997Z,97443.25
2023-05-14T22:40:29.372Z,97447.16
2023-05-14T22:45:50.159Z,97426.34
2023-05-14T22:51:10.739Z,97418.69
2023-05-14T22:56:31.363Z,97416.25
2023-05-14T23:01:52.048Z,97405.56
2023-05-14T23:07:12.749Z,97398.72
2023-05-14T23:12:33.297Z,97390.00
2023-05-14T23:17:54.148Z,97388.03
2023-05-14T23:23:14.674Z,97383.91
2023-05-14T23:28:35.212Z,97371.00
2023-05-14T23:33:56.837Z,97367.13
2023-05-14T23:39:17.573Z,97365.28
2023-05-14T23:44:38.336Z,97358.84
2023-05-14T23:49:58.843Z,97351.09
2023-05-14T23:55:19.674Z,97335.41
